createdAt,value
2019-04-04T00:02:19.116Z,98767.07
2019-04-04T00:04:52.356Z,98770.26
2019-04-04T00:07:22.944Z,98762.47
2019-04-04T00:09:53.897Z,98758.15
2019-04-04T00:12:24.642Z,98759.09
2019-04-04T00:14:55.317Z,98756.30
2019-04-04T00:17:26.349Z,98745.63
2019-04-04T00:19:57.034Z,98747.07
2019-04-04T00:22:27.997Z,98744.20
2019-04-04T00:24:58.937Z,98752.33
2019-04-04T00:27:29.616Z,98746.48
2019-04-04T00:30:00.303Z,98746.88
2019-04-04T00:32:30.996Z,98749.55
2019-04-04T00:35:01.688Z,98754.89
2019-04-04T00:37:34.427Z,98743.80
2019-04-04T00:40:07.245Z,98746.56
2019-04-04T00:42:38.312Z,98742.47
2019-04-04T00:45:09.774Z,98747.02
2019-04-04T00:47:40.561Z,98739.20
2019-04-04T00:50:11.397Z,98739.32
2019-04-04T00:52:42.098Z,98739.23
2019-04-04T00:55:13.915Z,98740.06
2019-04-04T00:57:45.493Z,98736.68
2019-04-04T01:00:16.315Z,98735.23
2019-04-04T01:02:47.240Z,98737.39
2019-04-04T01:05:18.179Z,98736.16
2019-04-04T01:07:48.848Z,98731.67
2019-04-04T01:10:19.811Z,98727.47
2019-04-04T01:12:52.229Z,98729.11
2019-04-04T01:15:22.871Z,98727.17
2019-04-04T01:17:53.606Z,98727.48
2019-04-04T01:20:24.278Z,98729.13
2019-04-04T01:22:56.122Z,98734.69
2019-04-04T01:25:28.187Z,98737.86
2019-04-04T01:27:59.180Z,98739.50
2019-04-04T01:30:30.245Z,98730.67
2019-04-04T01:33:03.679Z,98724.92
2019-04-04T01:35:34.816Z,98720.52
2019-04-04T01:38:05.539Z,98719.48
2019-04-04T01:40:36.218Z,98714.66
2019-04-04T01:43:09.334Z,98709.23
2019-04-04T01:45:39.572Z,98709.66
2019-04-04T01:48:11.343Z,98710.86
2019-04-04T01:50:42.660Z,98707.28
2019-04-04T01:53:13.417Z,98705.95
2019-04-04T01:55:44.453Z,98705.14
2019-04-04T01:58:15.136Z,98705.64
2019-04-04T02:00:46.599Z,98701.23
2019-04-04T02:03:17.366Z,98696.83
2019-04-04T02:05:49.009Z,98697.75
2019-04-04T02:08:19.699Z,98694.45
2019-04-04T02:10:50.372Z,98700.81
2019-04-04T02:13:21.070Z,98700.41
2019-04-04T02:15:52.157Z,98705.84
2019-04-04T02:18:23.654Z,98715.59
2019-04-04T02:20:57.598Z,98704.83
2019-04-04T02:23:27.031Z,98698.65
2019-04-04T02:25:57.745Z,98695.47
2019-04-04T02:28:28.695Z,98695.38
2019-04-04T02:30:59.815Z,98705.44
2019-04-04T02:33:32.392Z,98699.57
2019-04-04T02:36:03.789Z,98691.48
2019-04-04T02:38:34.889Z,98690.25
2019-04-04T02:41:05.950Z,98681.42
2019-04-04T02:43:36.866Z,98691.17
2019-04-04T02:46:11.053Z,98695.36
2019-04-04T02:48:40.265Z,98702.02
2019-04-04T02:51:11.272Z,98695.27
2019-04-04T02:53:43.202Z,98693.94
2019-04-04T02:56:13.904Z,98688.29
2019-04-04T02:58:46.362Z,98689.53
2019-04-04T03:01:17.245Z,98683.28
2019-04-04T03:03:48.052Z,98685.94
2019-04-04T03:06:18.738Z,98687.88
2019-04-04T03:08:49.600Z,98683.78
2019-04-04T03:11:22.172Z,98681.72
2019-04-04T03:13:52.664Z,98687.69
2019-04-04T03:16:23.382Z,98685.21
2019-04-04T03:18:54.152Z,98685.53
2019-04-04T03:21:24.902Z,98678.04
2019-04-04T03:23:55.716Z,98671.47
2019-04-04T03:26:26.871Z,98675.28
2019-04-04T03:28:57.819Z,98675.57
2019-04-04T03:31:36.379Z,98677.95
2019-04-04T03:34:08.341Z,98664.52
2019-04-04T03:36:34.025Z,98674.14
2019-04-04T03:39:06.506Z,98665.54
2019-04-04T03:41:37.188Z,98657.32
2019-04-04T03:44:07.875Z,98656.53
2019-04-04T03:46:39.522Z,98659.89
2019-04-04T03:49:10.216Z,98655.58
2019-04-04T03:51:40.891Z,98657.95
2019-04-04T03:54:13.236Z,98655.30
2019-04-04T03:56:44.028Z,98669.95
2019-04-04T03:59:15.025Z,98674.55
2019-04-04T04:01:46.804Z,98669.00
2019-04-04T04:04:17.667Z,98679.06
2019-04-04T04:06:48.366Z,98689.72
2019-04-04T04:09:19.415Z,98704.47
2019-04-04T04:11:50.379Z,98716.46
2019-04-04T04:14:22.742Z,98722.58
2019-04-04T04:16:53.545Z,98716.73
2019-04-04T04:19:27.447Z,98717.15
2019-04-04T04:21:57.650Z,98714.48
2019-04-04T04:24:29.572Z,98718.80
2019-04-04T04:27:00.758Z,98697.72
2019-04-04T04:29:31.461Z,98727.48
2019-04-04T04:32:03.086Z,98722.48
2019-04-04T04:34:34.357Z,98716.50
2019-04-04T04:37:05.022Z,98711.45
2019-04-04T04:39:41.128Z,98710.44
2019-04-04T04:42:09.655Z,98715.36
2019-04-04T04:44:40.353Z,98708.10
2019-04-04T04:47:11.112Z,98705.16
2019-04-04T04:49:42.354Z,98716.13
2019-04-04T04:52:18.562Z,98715.73
2019-04-04T04:54:52.320Z,98714.99
2019-04-04T04:57:29.848Z,98706.59
2019-04-04T04:59:55.667Z,98709.25
2019-04-04T05:02:26.600Z,98712.27
2019-04-04T05:04:59.279Z,98702.84
2019-04-04T05:07:29.924Z,98699.78
2019-04-04T05:10:00.591Z,98702.13
2019-04-04T05:12:31.294Z,98700.56
2019-04-04T05:15:02.331Z,98699.87
2019-04-04T05:17:32.996Z,98686.83
2019-04-04T05:20:05.516Z,98694.81
2019-04-04T05:22:39.667Z,98692.98
2019-04-04T05:25:09.218Z,98689.58
2019-04-04T05:27:40.175Z,98693.25
2019-04-04T05:30:10.995Z,98701.06
2019-04-04T05:32:41.651Z,98698.13
2019-04-04T05:35:15.016Z,98697.63
2019-04-04T05:37:45.072Z,98699.47
2019-04-04T05:40:15.885Z,98702.36
2019-04-04T05:42:46.821Z,98694.59
2019-04-04T05:45:17.573Z,98695.42
2019-04-04T05:47:48.248Z,98703.73
2019-04-04T05:50:19.026Z,98700.16
2019-04-04T05:52:49.986Z,98693.83
2019-04-04T05:55:20.933Z,98691.39
2019-04-04T05:57:51.741Z,98684.34
2019-04-04T06:00:22.817Z,98687.09
2019-04-04T06:02:53.509Z,98693.06
2019-04-04T06:05:26.987Z,98691.72
2019-04-04T06:07:56.548Z,98684.13
2019-04-04T06:10:27.548Z,98685.16
2019-04-04T06:12:58.579Z,98689.63
2019-04-04T06:15:30.088Z,98677.05
2019-04-04T06:18:02.299Z,98677.61
2019-04-04T06:20:33.310Z,98673.27
2019-04-04T06:23:04.006Z,98666.61
2019-04-04T06:25:35.920Z,98662.45
2019-04-04T06:28:06.648Z,98660.56
2019-04-04T06:30:43.064Z,98661.26
2019-04-04T06:33:09.962Z,98653.97
2019-04-04T06:35:40.649Z,98645.46
2019-04-04T06:38:11.347Z,98645.84
2019-04-04T06:40:42.083Z,98642.67
2019-04-04T06:43:12.788Z,98637.00
2019-04-04T06:45:46.227Z,98641.53
2019-04-04T06:48:16.316Z,98633.82
2019-04-04T06:50:47.008Z,98636.95
2019-04-04T06:53:17.684Z,98640.11
2019-04-04T06:55:48.370Z,98643.36
2019-04-04T06:58:19.077Z,98634.75
2019-04-04T07:00:50.300Z,98633.69
2019-04-04T07:03:21.079Z,98620.94
2019-04-04T07:05:51.840Z,98616.81
2019-04-04T07:08:22.793Z,98613.97
2019-04-04T07:10:58.304Z,98605.97
2019-04-04T07:13:27.995Z,98595.10
2019-04-04T07:16:06.741Z,98598.84
2019-04-04T07:18:30.769Z,98594.55
2019-04-04T07:21:03.616Z,98588.45
2019-04-04T07:23:34.335Z,98583.45
2019-04-04T07:26:06.234Z,98581.45
2019-04-04T07:28:36.912Z,98579.35
2019-04-04T07:31:07.826Z,98575.19
2019-04-04T07:33:38.532Z,98575.49
2019-04-04T07:36:09.485Z,98575.34
2019-04-04T07:38:40.423Z,98575.39
2019-04-04T07:41:11.371Z,98581.16
2019-04-04T07:43:42.356Z,98578.53
2019-04-04T07:46:16.937Z,98577.92
2019-04-04T07:48:45.384Z,98579.27
2019-04-04T07:51:16.406Z,98570.03
2019-04-04T07:53:47.064Z,98585.48
2019-04-04T07:56:18.073Z,98580.17
2019-04-04T07:58:48.783Z,98579.68
2019-04-04T08:01:19.771Z,98582.20
2019-04-04T08:03:50.714Z,98588.95
2019-04-04T08:06:21.693Z,98573.64
2019-04-04T08:08:52.364Z,98575.44
2019-04-04T08:11:23.010Z,98580.44
2019-04-04T08:13:53.683Z,98562.84
2019-04-04T08:16:24.353Z,98558.17
2019-04-04T08:18:55.392Z,98564.09
2019-04-04T08:21:26.338Z,98571.13
2019-04-04T08:23:57.001Z,98565.91
2019-04-04T08:26:27.673Z,98566.98
2019-04-04T08:28:58.343Z,98568.02
2019-04-04T08:31:28.997Z,98561.50
2019-04-04T08:33:59.779Z,98565.75
2019-04-04T08:36:30.701Z,98573.07
2019-04-04T08:39:01.493Z,98562.72
2019-04-04T08:41:33.332Z,98568.34
2019-04-04T08:44:04.036Z,98554.92
2019-04-04T08:46:34.712Z,98555.81
2019-04-04T08:49:05.759Z,98553.27
2019-04-04T08:51:36.704Z,98550.12
2019-04-04T08:54:07.794Z,98551.17
2019-04-04T08:56:38.504Z,98549.12
2019-04-04T08:59:09.489Z,98547.08
2019-04-04T09:01:42.031Z,98543.89
2019-04-04T09:04:15.953Z,98531.25
2019-04-04T09:06:46.982Z,98527.39
2019-04-04T09:09:18.056Z,98539.28
2019-04-04T09:11:48.739Z,98537.11
2019-04-04T09:14:19.719Z,98529.09
2019-04-04T09:16:50.432Z,98528.75
2019-04-04T09:19:21.127Z,98523.70
2019-04-04T09:21:52.035Z,98526.94
2019-04-04T09:24:22.734Z,98520.34
2019-04-04T09:26:53.722Z,98513.05
2019-04-04T09:29:24.371Z,98512.94
2019-04-04T09:31:55.068Z,98513.71
2019-04-04T09:34:25.994Z,98509.51
2019-04-04T09:36:56.687Z,98512.02
2019-04-04T09:39:27.360Z,98514.40
2019-04-04T09:41:58.010Z,98520.45
2019-04-04T09:44:28.674Z,98515.16
2019-04-04T09:47:05.346Z,98514.67
2019-04-04T09:49:32.038Z,98520.44
2019-04-04T09:52:02.712Z,98515.05
2019-04-04T09:54:33.395Z,98506.92
2019-04-04T09:57:04.120Z,98508.27
2019-04-04T09:59:35.119Z,98501.20
2019-04-04T10:02:06.310Z,98503.89
2019-04-04T10:04:37.358Z,98501.78
2019-04-04T10:07:08.074Z,98506.58
2019-04-04T10:09:39.244Z,98506.05
2019-04-04T10:12:10.373Z,98510.16
2019-04-04T10:14:41.064Z,98503.05
2019-04-04T10:17:11.711Z,98500.95
2019-04-04T10:19:42.407Z,98495.43
2019-04-04T10:22:13.131Z,98491.05
2019-04-04T10:24:43.870Z,98492.53
2019-04-04T10:27:14.539Z,98489.27
2019-04-04T10:29:45.600Z,98490.78
2019-04-04T10:32:16.551Z,98491.00
2019-04-04T10:34:47.581Z,98491.32
2019-04-04T10:37:18.621Z,98493.91
2019-04-04T10:39:49.861Z,98484.13
2019-04-04T10:42:20.539Z,98489.59
2019-04-04T10:44:51.588Z,98484.97
2019-04-04T10:47:22.567Z,98474.09
2019-04-04T10:49:53.254Z,98493.64
2019-04-04T10:52:24.240Z,98498.80
2019-04-04T10:54:55.304Z,98487.97
2019-04-04T10:57:26.420Z,98479.84
2019-04-04T10:59:57.490Z,98473.36
2019-04-04T11:02:28.540Z,98481.24
2019-04-04T11:04:59.265Z,98470.52
2019-04-04T11:07:30.413Z,98474.20
2019-04-04T11:10:01.435Z,98487.67
2019-04-04T11:12:34.420Z,98474.45
2019-04-04T11:15:08.187Z,98476.72
2019-04-04T11:17:38.878Z,98482.50
2019-04-04T11:20:09.774Z,98481.12
2019-04-04T11:22:40.726Z,98472.86
2019-04-04T11:25:11.395Z,98464.72
2019-04-04T11:27:42.392Z,98464.98
2019-04-04T11:30:13.717Z,98466.53
2019-04-04T11:33:29.796Z,98457.36
2019-04-04T11:36:51.070Z,98456.52
2019-04-04T11:39:31.105Z,98452.89
2019-04-04T11:42:02.255Z,98455.44
2019-04-04T11:44:33.308Z,98451.11
2019-04-04T11:47:04.092Z,98451.86
2019-04-04T11:49:35.177Z,98441.91
2019-04-04T11:52:06.209Z,98451.03
2019-04-04T11:54:38.506Z,98447.52
2019-04-04T11:57:09.216Z,98441.87
2019-04-04T11:59:39.881Z,98439.84
2019-04-04T12:02:10.576Z,98439.05
2019-04-04T12:04:41.630Z,98433.19
2019-04-04T12:07:12.658Z,98433.39
2019-04-04T12:09:43.354Z,98439.37
2019-04-04T12:12:14.093Z,98443.42
2019-04-04T12:14:45.072Z,98437.98
2019-04-04T12:17:16.085Z,98449.03
2019-04-04T12:19:47.192Z,98451.69
2019-04-04T12:22:17.849Z,98441.93
2019-04-04T12:24:48.681Z,98447.06
2019-04-04T12:27:19.417Z,98446.83
2019-04-04T12:29:50.344Z,98444.42
2019-04-04T12:32:21.028Z,98440.08
2019-04-04T12:34:51.692Z,98435.48
2019-04-04T12:37:22.704Z,98443.08
2019-04-04T12:39:53.616Z,98442.53
2019-04-04T12:42:27.277Z,98446.58
2019-04-04T12:44:58.530Z,98437.38
2019-04-04T12:47:29.275Z,98445.51
2019-04-04T12:50:00.213Z,98439.82
2019-04-04T12:52:31.139Z,98441.41
2019-04-04T12:55:01.838Z,98447.63
2019-04-04T12:57:32.816Z,98451.95
2019-04-04T13:00:04.050Z,98449.01
2019-04-04T13:02:34.721Z,98459.59
2019-04-04T13:05:08.085Z,98449.03
2019-04-04T13:07:38.752Z,98452.23
2019-04-04T13:10:12.267Z,98446.33
2019-04-04T13:12:43.999Z,98451.16
2019-04-04T13:15:15.347Z,98454.67
2019-04-04T13:17:46.051Z,98441.64
2019-04-04T13:20:18.260Z,98435.72
2019-04-04T13:22:49.393Z,98438.93
2019-04-04T13:25:20.303Z,98438.69
2019-04-04T13:27:50.988Z,98441.13
2019-04-04T13:30:22.457Z,98442.25
2019-04-04T13:32:53.188Z,98440.31
2019-04-04T13:35:23.895Z,98427.23
2019-04-04T13:37:54.657Z,98425.55
2019-04-04T13:40:25.699Z,98428.80
2019-04-04T13:42:56.663Z,98425.70
2019-04-04T13:45:27.366Z,98420.53
2019-04-04T13:47:58.389Z,98424.59
2019-04-04T13:50:29.585Z,98421.34
2019-04-04T13:53:00.634Z,98428.92
2019-04-04T13:55:31.760Z,98433.80
2019-04-04T13:58:02.703Z,98428.39
2019-04-04T14:00:33.702Z,98425.67
2019-04-04T14:03:04.686Z,98411.34
2019-04-04T14:05:35.359Z,98419.98
2019-04-04T14:08:06.374Z,98429.75
2019-04-04T14:10:37.135Z,98414.06
2019-04-04T14:13:07.909Z,98410.23
2019-04-04T14:15:38.899Z,98414.54
2019-04-04T14:18:38.066Z,98409.55
2019-04-04T14:21:03.849Z,98401.08
2019-04-04T14:23:30.207Z,98404.39
2019-04-04T14:26:00.953Z,98405.02
2019-04-04T14:28:31.892Z,98391.79
2019-04-04T14:31:02.621Z,98402.09
2019-04-04T14:33:34.778Z,98403.41
2019-04-04T14:36:05.991Z,98400.74
2019-04-04T14:38:36.658Z,98393.96
2019-04-04T14:41:11.409Z,98384.45
2019-04-04T14:43:40.179Z,98392.78
2019-04-04T14:46:10.897Z,98392.87
2019-04-04T14:48:43.008Z,98391.47
2019-04-04T14:51:14.196Z,98386.06
2019-04-04T14:53:44.959Z,98384.36
2019-04-04T14:56:15.975Z,98389.56
2019-04-04T14:58:46.913Z,98382.35
2019-04-04T15:01:17.910Z,98376.91
2019-04-04T15:03:48.944Z,98371.47
2019-04-04T15:06:19.731Z,98367.38
2019-04-04T15:08:50.797Z,98377.17
2019-04-04T15:11:24.447Z,98377.95
2019-04-04T15:13:54.104Z,98391.73
2019-04-04T15:16:25.073Z,98387.14
2019-04-04T15:18:55.731Z,98385.60
2019-04-04T15:21:26.700Z,98386.97
2019-04-04T15:23:57.661Z,98368.31
2019-04-04T15:26:28.314Z,98394.61
2019-04-04T15:28:58.980Z,98390.53
2019-04-04T15:31:29.910Z,98402.72
2019-04-04T15:34:00.907Z,98402.16
2019-04-04T15:36:31.763Z,98393.48
2019-04-04T15:39:02.767Z,98403.22
2019-04-04T15:41:37.237Z,98405.61
2019-04-04T15:44:08.091Z,98407.25
2019-04-04T15:46:38.817Z,98402.67
2019-04-04T15:49:09.483Z,98408.64
2019-04-04T15:51:40.469Z,98379.94
2019-04-04T15:54:11.446Z,98408.92
2019-04-04T15:56:42.378Z,98414.32
2019-04-04T15:59:13.312Z,98412.13
2019-04-04T16:01:44.327Z,98407.87
2019-04-04T16:04:14.989Z,98409.77
2019-04-04T16:06:45.742Z,98413.55
2019-04-04T16:09:16.430Z,98411.66
2019-04-04T16:11:49.737Z,98426.02
2019-04-04T16:14:19.782Z,98424.67
2019-04-04T16:16:50.778Z,98420.63
2019-04-04T16:19:21.435Z,98433.87
2019-04-04T16:21:52.378Z,98431.98
2019-04-04T16:24:23.318Z,98433.05
2019-04-04T16:26:54.019Z,98436.29
2019-04-04T16:29:24.746Z,98440.08
2019-04-04T16:31:55.760Z,98441.98
2019-04-04T16:34:26.653Z,98443.29
2019-04-04T16:36:57.722Z,98449.48
2019-04-04T16:39:28.646Z,98450.54
2019-04-04T16:42:02.491Z,98455.13
2019-04-04T16:44:32.147Z,98461.08
2019-04-04T16:47:03.097Z,98457.02
2019-04-04T16:49:34.053Z,98458.35
2019-04-04T16:52:07.262Z,98456.16
2019-04-04T16:54:37.811Z,98457.20
2019-04-04T16:57:08.730Z,98471.00
2019-04-04T16:59:39.777Z,98466.92
2019-04-04T17:02:10.718Z,98468.55
2019-04-04T17:04:41.418Z,98473.93
2019-04-04T17:07:12.107Z,98471.20
2019-04-04T17:09:42.944Z,98471.45
2019-04-04T17:12:15.464Z,98478.41
2019-04-04T17:14:46.501Z,98481.09
2019-04-04T17:17:17.146Z,98485.41
2019-04-04T17:19:47.886Z,98487.55
2019-04-04T17:22:18.824Z,98485.91
2019-04-04T17:24:49.832Z,98486.16
2019-04-04T17:27:20.773Z,98485.88
2019-04-04T17:29:52.633Z,98488.57
2019-04-04T17:32:23.731Z,98490.41
2019-04-04T17:34:54.859Z,98492.53
2019-04-04T17:37:26.571Z,98496.83
2019-04-04T17:39:58.016Z,98496.24
2019-04-04T17:42:32.004Z,98506.45
2019-04-04T17:45:02.299Z,98504.81
2019-04-04T17:47:34.154Z,98508.52
2019-04-04T17:50:08.526Z,98505.19
2019-04-04T17:52:39.457Z,98506.00
2019-04-04T17:55:11.968Z,98505.66
2019-04-04T17:57:43.283Z,98512.92
2019-04-04T18:00:16.453Z,98515.60
2019-04-04T18:02:48.211Z,98522.48
2019-04-04T18:05:19.394Z,98529.17
2019-04-04T18:07:51.195Z,98533.73
